createdAt,value
2022-08-18T00:02:28.125Z,19.94
2022-08-18T00:04:58.422Z,19.91
2022-08-18T00:07:29.526Z,19.89
2022-08-18T00:09:58.864Z,19.86
2022-08-18T00:12:30.595Z,19.84
2022-08-18T00:15:02.094Z,19.82
2022-08-18T00:17:30.142Z,19.80
2022-08-18T00:19:59.155Z,19.80
2022-08-18T00:22:27.547Z,19.78
2022-08-18T00:24:57.144Z,19.76
2022-08-18T00:27:28.519Z,19.75
2022-08-18T00:30:00.426Z,19.73
2022-08-18T00:32:34.076Z,19.72
2022-08-18T00:35:08.019Z,19.70
2022-08-18T00:37:36.525Z,19.68
2022-08-18T00:40:05.978Z,19.65
2022-08-18T00:42:38.797Z,19.63
2022-08-18T00:45:07.794Z,19.60
2022-08-18T00:47:42.711Z,19.59
2022-08-18T00:50:19.288Z,19.56
2022-08-18T00:52:53.905Z,19.54
2022-08-18T00:55:23.286Z,19.52
2022-08-18T00:57:55.375Z,19.50
2022-08-18T01:00:23.332Z,19.48
2022-08-18T01:02:57.123Z,19.46
2022-08-18T01:05:34.003Z,19.44
2022-08-18T01:08:03.521Z,19.42
2022-08-18T01:10:34.285Z,19.40
2022-08-18T01:13:02.330Z,19.36
2022-08-18T01:15:30.716Z,19.33
2022-08-18T01:18:21.626Z,19.30
2022-08-18T01:21:17.085Z,19.27
2022-08-18T01:23:46.183Z,19.24
2022-08-18T01:26:16.969Z,19.21
2022-08-18T01:28:47.071Z,19.19
2022-08-18T01:31:34.941Z,19.17
2022-08-18T01:34:03.520Z,19.14
2022-08-18T01:36:31.289Z,19.12
2022-08-18T01:38:59.094Z,19.09
2022-08-18T01:41:30.290Z,19.07
2022-08-18T01:44:00.826Z,19.03
2022-08-18T01:46:31.808Z,19.00
2022-08-18T01:49:01.541Z,18.98
2022-08-18T01:51:38.826Z,18.96
2022-08-18T01:54:12.019Z,18.95
2022-08-18T01:56:42.526Z,18.92
2022-08-18T01:59:14.910Z,18.90
2022-08-18T02:01:50.425Z,18.88
2022-08-18T02:04:36.423Z,18.87
2022-08-18T02:07:10.129Z,18.85
2022-08-18T02:09:39.841Z,18.83
2022-08-18T02:12:08.684Z,18.81
2022-08-18T02:14:37.415Z,18.79
2022-08-18T02:17:08.009Z,18.78
2022-08-18T02:19:38.898Z,18.77
2022-08-18T02:22:08.513Z,18.74
2022-08-18T02:24:37.521Z,18.71
2022-08-18T02:27:06.833Z,18.69
2022-08-18T02:29:35.090Z,18.67
2022-08-18T02:32:03.325Z,18.64
2022-08-18T02:34:31.192Z,18.63
2022-08-18T02:37:03.414Z,18.62
2022-08-18T02:39:33.886Z,18.59
2022-08-18T02:42:01.607Z,18.56
2022-08-18T02:44:29.858Z,18.53
2022-08-18T02:46:58.578Z,18.51
2022-08-18T02:49:26.578Z,18.50
2022-08-18T02:51:54.828Z,18.48
2022-08-18T02:54:24.222Z,18.46
2022-08-18T02:56:53.556Z,18.44
2022-08-18T02:59:24.471Z,18.41
2022-08-18T03:01:55.481Z,18.38
2022-08-18T03:04:29.708Z,18.36
2022-08-18T03:07:05.546Z,18.34
2022-08-18T03:09:34.619Z,18.33
2022-08-18T03:12:02.951Z,18.31
2022-08-18T03:14:30.655Z,18.31
2022-08-18T03:17:00.238Z,18.30
2022-08-18T03:19:29.527Z,18.28
2022-08-18T03:22:02.854Z,18.26
2022-08-18T03:24:32.775Z,18.25
2022-08-18T03:27:06.036Z,18.25
2022-08-18T03:29:35.258Z,18.25
2022-08-18T03:32:05.409Z,18.27
2022-08-18T03:34:34.237Z,18.27
2022-08-18T03:37:01.976Z,18.27
2022-08-18T03:39:29.813Z,18.28
2022-08-18T03:42:02.112Z,18.28
2022-08-18T03:44:33.542Z,18.30
2022-08-18T03:47:04.459Z,18.31
2022-08-18T03:49:33.970Z,18.33
2022-08-18T03:52:02.398Z,18.34
2022-08-18T03:54:34.378Z,18.36
2022-08-18T03:59:47.534Z,18.43
2022-08-18T04:02:15.528Z,18.47
2022-08-18T04:04:43.435Z,18.51
2022-08-18T04:07:17.577Z,18.55
2022-08-18T04:09:45.849Z,18.60
2022-08-18T04:12:16.591Z,18.64
2022-08-18T04:14:49.048Z,18.67
2022-08-18T04:17:24.897Z,18.71
2022-08-18T04:19:54.192Z,18.74
2022-08-18T04:22:23.039Z,18.78
2022-08-18T04:24:51.169Z,18.82
2022-08-18T04:27:21.149Z,18.86
2022-08-18T04:29:48.961Z,18.90
2022-08-18T04:32:16.968Z,18.95
2022-08-18T04:34:44.679Z,19.00
2022-08-18T04:37:14.092Z,19.05
2022-08-18T04:39:42.248Z,19.10
2022-08-18T04:42:10.323Z,19.15
2022-08-18T04:44:38.054Z,19.21
2022-08-18T04:47:08.235Z,19.26
2022-08-18T04:49:36.864Z,19.31
2022-08-18T04:52:39.158Z,19.36
2022-08-18T04:55:10.606Z,19.44
2022-08-18T04:57:39.208Z,19.50
2022-08-18T05:00:13.474Z,19.56
2022-08-18T05:02:41.717Z,19.63
2022-08-18T05:05:10.191Z,19.69
2022-08-18T05:07:44.998Z,19.75
2022-08-18T05:10:14.170Z,19.82
2022-08-18T05:12:42.551Z,19.90
2022-08-18T05:15:10.536Z,19.97
2022-08-18T05:17:39.751Z,20.02
2022-08-18T05:20:09.479Z,20.08
2022-08-18T05:22:40.829Z,20.12
2022-08-18T05:27:56.364Z,20.23
2022-08-18T05:30:24.147Z,20.30
2022-08-18T05:32:52.257Z,20.35
2022-08-18T05:35:30.886Z,20.42
2022-08-18T05:38:17.190Z,20.49
2022-08-18T05:40:49.998Z,20.58
2022-08-18T05:43:18.238Z,20.66
2022-08-18T05:45:50.276Z,20.75
2022-08-18T05:48:18.985Z,20.83
2022-08-18T05:50:47.242Z,20.92
2022-08-18T05:53:18.492Z,21.01
2022-08-18T05:56:10.020Z,21.10
2022-08-18T05:58:43.545Z,21.21
2022-08-18T06:01:18.873Z,21.31
2022-08-18T06:03:54.474Z,21.41
2022-08-18T06:06:28.146Z,21.51
2022-08-18T06:09:10.579Z,21.61
2022-08-18T06:11:39.248Z,21.73
2022-08-18T06:14:07.184Z,21.83
2022-08-18T06:17:06.233Z,21.94
2022-08-18T06:19:49.560Z,22.07
2022-08-18T06:22:52.339Z,22.19
2022-08-18T06:25:55.476Z,22.33
2022-08-18T06:28:23.965Z,22.47
2022-08-18T06:31:05.935Z,22.59
2022-08-18T06:33:47.979Z,22.72
2022-08-18T06:36:40.854Z,22.85
2022-08-18T06:39:22.444Z,22.97
2022-08-18T06:41:54.262Z,23.09
2022-08-18T06:44:42.829Z,23.21
2022-08-18T06:47:23.154Z,23.33
2022-08-18T06:49:55.787Z,23.44
2022-08-18T06:52:40.339Z,23.53
2022-08-18T06:55:16.971Z,23.65
2022-08-18T06:57:57.916Z,23.76
2022-08-18T07:00:32.425Z,23.86
2022-08-18T07:03:16.274Z,23.97
2022-08-18T07:06:04.797Z,24.06
2022-08-18T07:08:36.533Z,24.19
2022-08-18T07:11:20.689Z,24.30
2022-08-18T07:14:03.705Z,24.40
2022-08-18T07:16:57.832Z,24.49
2022-08-18T07:19:29.869Z,24.60
2022-08-18T07:22:10.098Z,24.70
2022-08-18T07:25:03.091Z,24.80
2022-08-18T07:27:47.992Z,24.90
2022-08-18T07:30:21.565Z,25.00
2022-08-18T07:32:59.976Z,25.08
2022-08-18T07:35:39.503Z,25.18
2022-08-18T07:38:40.809Z,25.27
2022-08-18T07:41:14.032Z,25.39
2022-08-18T07:43:53.535Z,25.45
2022-08-18T07:46:35.742Z,25.55
2022-08-18T07:49:05.474Z,25.63
2022-08-18T07:51:52.618Z,25.69
2022-08-18T07:54:49.777Z,25.74
2022-08-18T07:57:41.913Z,25.81
2022-08-18T08:00:18.623Z,25.91
2022-08-18T08:03:31.437Z,26.01
2022-08-18T08:06:05.413Z,26.13
2022-08-18T08:08:55.109Z,26.22
2022-08-18T08:11:56.402Z,26.30
2022-08-18T08:14:46.020Z,26.41
2022-08-18T08:17:29.605Z,26.49
2022-08-18T08:20:26.237Z,26.57
2022-08-18T08:23:17.793Z,26.67
2022-08-18T08:25:56.944Z,26.73
2022-08-18T08:28:55.171Z,26.68
2022-08-18T08:31:57.921Z,26.66
2022-08-18T08:34:34.385Z,26.70
2022-08-18T08:37:05.897Z,26.76
2022-08-18T08:39:50.162Z,26.77
2022-08-18T08:42:56.375Z,26.72
2022-08-18T08:45:34.356Z,26.73
2022-08-18T08:48:22.852Z,26.75
2022-08-18T08:51:31.971Z,26.76
2022-08-18T08:54:23.629Z,26.78
2022-08-18T08:56:55.459Z,26.78
2022-08-18T09:02:50.618Z,26.88
2022-08-18T09:05:41.342Z,26.96
2022-08-18T09:08:47.429Z,26.98
2022-08-18T09:11:33.021Z,26.96
2022-08-18T09:14:23.846Z,26.90
2022-08-18T09:17:10.328Z,26.89
2022-08-18T09:19:56.728Z,26.91
2022-08-18T09:22:36.882Z,26.97
2022-08-18T09:25:12.121Z,27.01
2022-08-18T09:28:09.994Z,27.09
2022-08-18T09:30:40.229Z,27.21
2022-08-18T09:33:24.761Z,27.30
2022-08-18T09:36:11.087Z,27.40
2022-08-18T09:39:08.413Z,27.46
2022-08-18T09:42:08.851Z,27.56
2022-08-18T09:44:48.667Z,27.65
2022-08-18T09:47:27.440Z,27.70
2022-08-18T09:50:30.003Z,27.79
2022-08-18T09:53:15.889Z,27.90
2022-08-18T09:55:59.126Z,28.00
2022-08-18T09:58:29.473Z,28.01
2022-08-18T10:01:34.650Z,27.91
2022-08-18T10:04:21.463Z,27.79
2022-08-18T10:09:53.057Z,27.84
2022-08-18T10:12:23.713Z,27.91
2022-08-18T10:15:33.345Z,27.98
2022-08-18T10:18:33.454Z,28.08
2022-08-18T10:21:24.410Z,28.18
2022-08-18T10:24:14.715Z,28.22
2022-08-18T10:29:32.219Z,28.34
2022-08-18T10:32:00.099Z,28.44
2022-08-18T10:34:51.432Z,28.56
2022-08-18T10:37:49.159Z,28.56
2022-08-18T10:40:26.443Z,28.50
2022-08-18T10:43:45.553Z,28.52
2022-08-18T10:46:46.403Z,28.57
2022-08-18T10:49:14.711Z,28.63
2022-08-18T10:52:07.074Z,28.66
2022-08-18T10:55:00.652Z,28.71
2022-08-18T10:57:55.372Z,28.77
2022-08-18T11:00:47.396Z,28.85
2022-08-18T11:03:51.803Z,28.87
2022-08-18T11:06:24.741Z,28.94
2022-08-18T11:08:59.565Z,29.04
2022-08-18T11:11:42.158Z,29.15
2022-08-18T11:14:31.661Z,29.22
2022-08-18T11:17:16.632Z,29.15
2022-08-18T11:19:46.780Z,29.13
2022-08-18T11:25:42.056Z,29.27
2022-08-18T11:28:19.390Z,29.36
2022-08-18T11:30:52.799Z,29.43
2022-08-18T11:33:22.700Z,29.49
2022-08-18T11:35:58.313Z,29.54
2022-08-18T11:38:29.450Z,29.52
2022-08-18T11:41:24.487Z,29.56
2022-08-18T11:44:03.419Z,29.57
2022-08-18T11:46:38.873Z,29.56
2022-08-18T11:49:17.864Z,29.54
2022-08-18T11:52:03.190Z,29.54
2022-08-18T11:54:38.373Z,29.53
2022-08-18T11:57:27.766Z,29.55
2022-08-18T12:00:00.627Z,29.59
2022-08-18T12:02:28.989Z,29.56
2022-08-18T12:05:08.560Z,29.54
2022-08-18T12:07:45.400Z,29.55
2022-08-18T12:10:30.791Z,29.56
2022-08-18T12:13:00.106Z,29.53
2022-08-18T12:15:44.094Z,29.41
2022-08-18T12:21:06.530Z,29.28
2022-08-18T12:23:39.095Z,29.33
2022-08-18T12:26:27.074Z,29.42
2022-08-18T12:29:08.611Z,29.54
2022-08-18T12:31:42.568Z,29.65
2022-08-18T12:34:24.825Z,29.71
2022-08-18T12:37:01.212Z,29.73
2022-08-18T12:39:30.633Z,29.66
2022-08-18T12:42:00.183Z,29.60
2022-08-18T12:44:28.131Z,29.51
2022-08-18T12:46:56.183Z,29.46
2022-08-18T12:49:24.999Z,29.48
2022-08-18T12:51:55.795Z,29.52
2022-08-18T12:54:25.102Z,29.49
2022-08-18T12:56:56.114Z,29.47
2022-08-18T12:59:24.766Z,29.47
2022-08-18T13:01:58.804Z,29.46
2022-08-18T13:04:28.288Z,29.42
2022-08-18T13:07:02.006Z,29.34
2022-08-18T13:09:53.295Z,29.29
2022-08-18T13:12:24.163Z,29.25
2022-08-18T13:14:55.357Z,29.26
2022-08-18T13:17:28.956Z,29.32
2022-08-18T13:20:09.690Z,29.41
2022-08-18T13:22:41.049Z,29.50
2022-08-18T13:25:12.516Z,29.61
2022-08-18T13:27:43.723Z,29.69
2022-08-18T13:30:29.830Z,29.77
2022-08-18T13:33:34.679Z,29.85
2022-08-18T13:35:54.466Z,29.92
2022-08-18T13:38:27.842Z,29.97
2022-08-18T13:40:59.671Z,30.01
2022-08-18T13:43:32.552Z,30.03
2022-08-18T13:46:04.027Z,30.04
2022-08-18T13:48:33.196Z,30.07
2022-08-18T13:51:04.027Z,30.09
2022-08-18T13:53:32.033Z,30.10
2022-08-18T13:56:00.393Z,30.11
2022-08-18T13:58:29.504Z,30.11
2022-08-18T14:03:55.385Z,30.20
2022-08-18T14:06:24.212Z,30.18
2022-08-18T14:08:54.203Z,30.14
2022-08-18T14:11:33.266Z,30.10
2022-08-18T14:14:02.572Z,30.04
2022-08-18T14:16:33.354Z,30.01
2022-08-18T14:19:22.869Z,30.00
2022-08-18T14:22:11.879Z,30.01
2022-08-18T14:25:00.634Z,30.05
2022-08-18T14:27:35.746Z,30.06
2022-08-18T14:30:07.846Z,30.03
2022-08-18T14:32:36.147Z,30.02
2022-08-18T14:35:33.704Z,30.00
2022-08-18T14:37:54.517Z,29.89
2022-08-18T14:40:24.772Z,29.80
2022-08-18T14:42:54.059Z,29.76
2022-08-18T14:45:34.060Z,29.69
2022-08-18T14:48:07.604Z,29.58
2022-08-18T14:50:44.841Z,29.54
2022-08-18T14:53:20.353Z,29.57
2022-08-18T14:55:52.534Z,29.62
2022-08-18T14:58:29.148Z,29.67
2022-08-18T15:00:59.925Z,29.70
2022-08-18T15:03:31.802Z,29.73
2022-08-18T15:06:04.700Z,29.78
2022-08-18T15:08:38.538Z,29.84
2022-08-18T15:11:11.716Z,29.89
2022-08-18T15:13:45.149Z,29.92
2022-08-18T15:16:15.077Z,29.93
2022-08-18T15:18:44.819Z,29.94
2022-08-18T15:21:48.935Z,29.94
2022-08-18T15:24:37.661Z,29.96
2022-08-18T15:27:10.550Z,29.99
2022-08-18T15:29:47.118Z,29.97
2022-08-18T15:32:18.587Z,29.94
2022-08-18T15:34:51.256Z,29.90
2022-08-18T15:37:24.136Z,29.87
2022-08-18T15:40:21.568Z,29.83
2022-08-18T15:43:01.553Z,29.78
2022-08-18T15:45:35.589Z,29.77
2022-08-18T15:48:04.262Z,29.74
2022-08-18T15:50:32.219Z,29.71
2022-08-18T15:53:03.907Z,29.67
2022-08-18T15:55:39.102Z,29.64
2022-08-18T15:58:11.160Z,29.61
2022-08-18T16:00:45.568Z,29.58
2022-08-18T16:03:16.400Z,29.56
2022-08-18T16:05:53.698Z,29.53
2022-08-18T16:08:23.769Z,29.49
2022-08-18T16:10:53.598Z,29.50
2022-08-18T16:13:22.228Z,29.57
2022-08-18T16:15:50.500Z,29.63
2022-08-18T16:18:21.161Z,29.62
2022-08-18T16:20:50.608Z,29.56
2022-08-18T16:23:24.737Z,29.48
2022-08-18T16:25:52.606Z,29.43
2022-08-18T16:28:20.261Z,29.37
2022-08-18T16:31:03.143Z,29.29
2022-08-18T16:33:31.438Z,29.25
2022-08-18T16:36:07.157Z,29.21
2022-08-18T16:38:38.395Z,29.16
2022-08-18T16:41:13.850Z,29.12
2022-08-18T16:43:44.481Z,29.07
2022-08-18T16:46:14.781Z,29.02
2022-08-18T16:48:46.049Z,28.96
2022-08-18T16:51:16.843Z,28.91
2022-08-18T16:53:46.384Z,28.86
2022-08-18T16:56:16.740Z,28.80
2022-08-18T16:59:03.077Z,28.72
2022-08-18T17:01:52.683Z,28.65
2022-08-18T17:04:28.908Z,28.61
2022-08-18T17:06:57.481Z,28.52
2022-08-18T17:09:25.817Z,28.40
2022-08-18T17:11:54.406Z,28.26
2022-08-18T17:14:24.684Z,28.11
2022-08-18T17:16:54.891Z,27.97
2022-08-18T17:19:25.595Z,27.84
2022-08-18T17:21:53.933Z,27.70
2022-08-18T17:24:31.983Z,27.57
2022-08-18T17:27:25.955Z,27.44
2022-08-18T17:30:08.768Z,27.28
2022-08-18T17:32:39.459Z,27.14
2022-08-18T17:35:15.242Z,27.01
2022-08-18T17:37:59.067Z,26.88
2022-08-18T17:40:35.545Z,26.74
2022-08-18T17:43:03.887Z,26.61
2022-08-18T17:45:34.927Z,26.48
2022-08-18T17:48:18.106Z,26.35
2022-08-18T17:51:10.322Z,26.21
2022-08-18T17:53:38.678Z,26.07
2022-08-18T17:56:36.463Z,25.95
2022-08-18T17:59:45.727Z,25.81
2022-08-18T18:02:28.839Z,25.67
2022-08-18T18:05:00.807Z,25.55
2022-08-18T18:07:39.486Z,25.42
2022-08-18T18:10:13.009Z,25.28
2022-08-18T18:12:41.280Z,25.15
2022-08-18T18:15:11.922Z,25.04
2022-08-18T18:17:42.552Z,24.93
2022-08-18T18:20:15.305Z,24.84
2022-08-18T18:22:44.722Z,24.75
2022-08-18T18:25:13.575Z,24.66
2022-08-18T18:27:47.439Z,24.59
2022-08-18T18:30:19.218Z,24.50
2022-08-18T18:32:59.483Z,24.40
2022-08-18T18:35:31.388Z,24.31
2022-08-18T18:38:05.550Z,24.22
2022-08-18T18:40:38.611Z,24.16
2022-08-18T18:43:38.453Z,24.10
2022-08-18T18:46:18.559Z,24.03
2022-08-18T18:49:11.139Z,23.97
2022-08-18T18:51:53.880Z,23.90
2022-08-18T18:54:51.953Z,23.83
2022-08-18T18:57:19.556Z,23.76
2022-08-18T19:00:18.271Z,23.70
2022-08-18T19:03:25.641Z,23.64
2022-08-18T19:06:08.384Z,23.59
2022-08-18T19:09:10.313Z,23.54
2022-08-18T19:12:10.037Z,23.50
2022-08-18T19:14:46.835Z,23.46
2022-08-18T19:17:38.874Z,23.41
2022-08-18T19:20:28.403Z,23.38
2022-08-18T19:23:04.550Z,23.33
2022-08-18T19:25:48.472Z,23.27
2022-08-18T19:29:01.169Z,23.22
2022-08-18T19:31:38.969Z,23.16
2022-08-18T19:34:29.971Z,23.12
2022-08-18T19:37:27.461Z,23.06
2022-08-18T19:40:43.360Z,23.01
2022-08-18T19:43:26.790Z,22.96
2022-08-18T19:46:22.610Z,22.91
2022-08-18T19:49:01.561Z,22.87
2022-08-18T19:51:32.711Z,22.82
2022-08-18T19:54:19.108Z,22.78
2022-08-18T19:56:50.272Z,22.74
2022-08-18T19:59:36.007Z,22.70
2022-08-18T20:02:12.290Z,22.65
2022-08-18T20:05:17.357Z,22.60
2022-08-18T20:08:25.736Z,22.55
2022-08-18T20:11:41.082Z,22.50
2022-08-18T20:14:17.137Z,22.46
2022-08-18T20:17:04.749Z,22.44
2022-08-18T20:20:02.869Z,22.41
2022-08-18T20:22:32.900Z,22.39
2022-08-18T20:25:08.409Z,22.37
2022-08-18T20:27:41.420Z,22.34
2022-08-18T20:30:24.027Z,22.33
2022-08-18T20:33:07.472Z,22.30
2022-08-18T20:35:46.996Z,22.27
2022-08-18T20:38:26.148Z,22.24
2022-08-18T20:40:55.471Z,22.21
2022-08-18T20:43:32.331Z,22.19
2022-08-18T20:46:22.114Z,22.16
2022-08-18T20:49:27.543Z,22.14
2022-08-18T20:52:04.140Z,22.11
2022-08-18T20:54:38.142Z,22.08
2022-08-18T20:57:12.849Z,22.04
2022-08-18T20:59:58.572Z,22.02
2022-08-18T21:02:40.873Z,21.99
2022-08-18T21:05:10.627Z,21.96
2022-08-18T21:08:17.205Z,21.93
2022-08-18T21:11:20.662Z,21.90
2022-08-18T21:14:03.881Z,21.86
2022-08-18T21:16:37.816Z,21.84
2022-08-18T21:19:14.453Z,21.82
2022-08-18T21:21:49.392Z,21.80
2022-08-18T21:24:35.651Z,21.78
2022-08-18T21:27:26.318Z,21.76
2022-08-18T21:30:01.512Z,21.75
2022-08-18T21:32:32.431Z,21.75
2022-08-18T21:35:06.043Z,21.74
2022-08-18T21:37:41.742Z,21.73
2022-08-18T21:40:10.330Z,21.72
2022-08-18T21:42:45.966Z,21.71
2022-08-18T21:45:22.533Z,21.71
2022-08-18T21:47:53.555Z,21.71
2022-08-18T21:50:25.642Z,21.72
2022-08-18T21:53:00.169Z,21.73
2022-08-18T21:55:32.654Z,21.74
2022-08-18T21:58:07.348Z,21.73
2022-08-18T22:00:39.072Z,21.72
2022-08-18T22:03:25.252Z,21.71
2022-08-18T22:06:02.047Z,21.70
2022-08-18T22:08:33.671Z,21.69
2022-08-18T22:12:00.936Z,21.67
2022-08-18T22:14:30.005Z,21.66
2022-08-18T22:17:28.463Z,21.64
2022-08-18T22:20:36.317Z,21.62
2022-08-18T22:24:05.779Z,21.62
2022-08-18T22:26:36.947Z,21.62
2022-08-18T22:29:21.509Z,21.62
2022-08-18T22:31:52.218Z,21.61
2022-08-18T22:34:27.951Z,21.60
2022-08-18T22:37:15.863Z,21.59
2022-08-18T22:39:52.054Z,21.57
2022-08-18T22:42:23.111Z,21.55
2022-08-18T22:44:51.558Z,21.54
2022-08-18T22:47:19.685Z,21.53
2022-08-18T22:49:47.899Z,21.51
2022-08-18T22:52:19.282Z,21.51
2022-08-18T22:54:47.083Z,21.49
2022-08-18T22:57:19.161Z,21.47
2022-08-18T22:59:51.689Z,21.46
2022-08-18T23:02:22.119Z,21.44
2022-08-18T23:04:50.133Z,21.42
2022-08-18T23:07:22.858Z,21.39
2022-08-18T23:09:50.727Z,21.37
2022-08-18T23:12:18.369Z,21.34
2022-08-18T23:14:46.783Z,21.31
2022-08-18T23:17:14.550Z,21.29
2022-08-18T23:19:43.259Z,21.26
2022-08-18T23:22:11.406Z,21.22
2022-08-18T23:24:40.522Z,21.19
2022-08-18T23:27:08.812Z,21.15
2022-08-18T23:29:36.705Z,21.12
2022-08-18T23:32:06.949Z,21.09
2022-08-18T23:34:36.361Z,21.06
2022-08-18T23:37:04.775Z,21.03
2022-08-18T23:39:34.725Z,21.00
2022-08-18T23:42:04.470Z,20.97
2022-08-18T23:44:33.962Z,20.94
2022-08-18T23:47:02.045Z,20.92
2022-08-18T23:49:30.604Z,20.89
2022-08-18T23:52:00.298Z,20.86
2022-08-18T23:54:31.833Z,20.84
2022-08-18T23:57:00.374Z,20.82
2022-08-18T23:59:28.931Z,20.80
